Terminal Aerodrome Forecast
Issued by NWS Pocatello, ID

Home | Current Version | Previous Version | Text Only | Print | Product List | Glossary On
Versions: 1 2 3 4 5 6 7 8 9 10 11 12
000
FTUS45 KPIH 032358
TAFBYI
TAF
KBYI 032358Z 0400/0424 VRB06KT P6SM VCTS SCT100CB BKN120
     FM040300 20009KT P6SM SCT120
     FM041900 06007KT P6SM VCTS SCT080CB OVC120=

USA.gov is the U.S. government's official web portal to all federal, state and local government web resources and services.